Time;durP1;ratioP1;P1;durP2;ratioP2;P2;SDS_P1;SDS_P2;PMS_P1;PMS_P2;Temp;Humidity;BMP_temperature;BMP_pressure;BME280_temperature;BME280_humidity;BME280_pressure;Samples;Min_cycle;Max_cycle;Signal;HPM_P1;HPM_P2
2024/03/15 00:02:23;;;;;;;8.83;7.67;;;10.80;99.90;;;;;;5060897;28;20203;-45
2024/03/15 00:04:51;;;;;;;11.43;8.03;;;10.90;99.90;;;;;;5050898;28;20189;-48
2024/03/15 00:07:18;;;;;;;11.90;7.83;;;10.90;99.90;;;;;;5077631;28;20194;-46
2024/03/15 00:09:45;;;;;;;10.60;8.10;;;10.90;99.90;;;;;;5027540;28;20288;-46
2024/03/15 00:12:12;;;;;;;12.00;8.23;;;10.90;99.90;;;;;;5060353;28;20202;-47
2024/03/15 00:14:42;;;;;;;8.40;7.50;;;10.90;99.90;;;;;;5037428;28;20923;-43
2024/03/15 00:17:09;;;;;;;9.33;8.40;;;11.00;99.90;;;;;;5060485;28;20210;-45
2024/03/15 00:19:36;;;;;;;9.37;7.97;;;11.00;99.90;;;;;;5046345;28;20207;-43
2024/03/15 00:22:02;;;;;;;9.07;7.67;;;11.00;99.90;;;;;;5058076;28;20251;-46
2024/03/15 00:24:29;;;;;;;8.67;7.50;;;11.00;99.90;;;;;;5042431;28;20306;-49
2024/03/15 00:26:59;;;;;;;7.23;6.50;;;11.10;99.90;;;;;;5058743;28;20194;-46
2024/03/15 00:29:26;;;;;;;8.77;7.93;;;11.00;99.90;;;;;;5060973;28;21613;-46
2024/03/15 00:31:53;;;;;;;8.20;7.40;;;11.00;99.90;;;;;;5056999;28;20252;-47
2024/03/15 00:34:20;;;;;;;9.70;7.77;;;11.10;99.90;;;;;;5054437;28;20698;-47
2024/03/15 00:36:47;;;;;;;9.13;7.80;;;11.10;99.90;;;;;;5060344;28;20214;-48
2024/03/15 00:39:15;;;;;;;8.87;7.97;;;11.10;99.90;;;;;;5029378;28;20210;-46
2024/03/15 00:41:42;;;;;;;9.63;7.23;;;11.10;99.90;;;;;;5074560;28;20202;-43
2024/03/15 00:44:08;;;;;;;9.90;8.10;;;11.10;99.90;;;;;;5055971;28;20205;-44
2024/03/15 00:46:35;;;;;;;9.47;8.03;;;11.10;99.90;;;;;;5061040;28;20244;-45
2024/03/15 00:49:02;;;;;;;9.60;8.37;;;11.10;99.90;;;;;;5051926;28;20287;-47
2024/03/15 00:51:29;;;;;;;11.23;8.10;;;11.10;99.90;;;;;;5063491;28;20199;-43
2024/03/15 00:53:56;;;;;;;10.17;8.10;;;11.20;99.90;;;;;;5034953;28;20268;-47
2024/03/15 00:56:23;;;;;;;10.37;7.67;;;11.10;99.90;;;;;;5070525;28;20214;-47
2024/03/15 00:58:50;;;;;;;9.50;8.00;;;11.10;99.90;;;;;;5074407;28;20191;-47
2024/03/15 01:01:17;;;;;;;8.93;7.90;;;11.10;99.90;;;;;;5058770;28;20261;-44
2024/03/15 01:03:44;;;;;;;8.73;7.77;;;11.10;99.90;;;;;;5051419;28;20237;-48
2024/03/15 01:06:13;;;;;;;10.30;7.37;;;11.10;99.90;;;;;;5052928;28;20194;-45
2024/03/15 01:08:40;;;;;;;9.43;7.70;;;11.10;99.90;;;;;;5060850;28;20202;-44
2024/03/15 01:11:08;;;;;;;10.73;8.00;;;11.10;99.90;;;;;;5026121;28;20292;-48
2024/03/15 01:13:35;;;;;;;9.63;7.80;;;11.10;99.90;;;;;;5060812;28;20214;-44
2024/03/15 01:16:02;;;;;;;11.20;7.90;;;11.10;99.90;;;;;;5057102;28;20709;-48
2024/03/15 01:18:29;;;;;;;11.27;8.50;;;11.00;99.90;;;;;;5059392;28;20194;-43
2024/03/15 01:20:56;;;;;;;11.10;8.10;;;11.10;99.90;;;;;;5050758;28;20657;-46
2024/03/15 01:23:22;;;;;;;9.03;7.33;;;11.10;99.90;;;;;;5041835;28;20264;-44
2024/03/15 01:25:50;;;;;;;9.10;7.90;;;11.10;99.90;;;;;;5026724;28;20635;-46
2024/03/15 01:28:17;;;;;;;10.50;7.80;;;11.10;99.90;;;;;;5058936;28;20179;-45
2024/03/15 01:30:45;;;;;;;9.83;7.80;;;11.10;99.90;;;;;;5052962;28;20249;-50
2024/03/15 01:33:12;;;;;;;8.93;7.30;;;11.00;99.90;;;;;;5040712;28;20217;-46
2024/03/15 01:35:39;;;;;;;11.07;8.50;;;11.00;99.90;;;;;;5057878;28;20701;-47
2024/03/15 01:38:06;;;;;;;11.83;7.63;;;11.00;99.90;;;;;;5077065;28;20252;-44
2024/03/15 01:40:33;;;;;;;12.13;7.70;;;11.00;99.90;;;;;;5048434;28;20588;-50
2024/03/15 01:43:00;;;;;;;9.10;7.40;;;11.00;99.90;;;;;;5045768;28;20206;-45
2024/03/15 01:45:27;;;;;;;10.50;8.27;;;11.00;99.90;;;;;;5064620;28;20198;-45
2024/03/15 01:47:53;;;;;;;12.10;8.57;;;10.90;99.90;;;;;;5061136;28;20240;-46
2024/03/15 01:50:22;;;;;;;8.87;8.07;;;10.90;99.90;;;;;;5063372;28;20230;-45
2024/03/15 01:52:49;;;;;;;9.50;7.40;;;10.90;99.90;;;;;;5054872;28;20955;-44
2024/03/15 01:55:16;;;;;;;9.00;8.10;;;10.90;99.90;;;;;;5063580;28;20684;-47
2024/03/15 01:57:45;;;;;;;10.60;8.37;;;10.90;99.90;;;;;;5031525;28;20210;-47
2024/03/15 02:00:13;;;;;;;9.43;8.47;;;10.90;99.90;;;;;;5064021;28;20209;-45
2024/03/15 02:02:40;;;;;;;10.77;7.80;;;10.90;99.90;;;;;;5053934;28;20309;-50
2024/03/15 02:05:07;;;;;;;10.67;7.70;;;10.90;99.90;;;;;;5057903;28;20202;-44
2024/03/15 02:07:34;;;;;;;12.07;7.70;;;10.80;99.90;;;;;;5056710;28;20203;-48
2024/03/15 02:10:01;;;;;;;8.97;7.80;;;10.80;99.90;;;;;;5061623;28;20279;-45
2024/03/15 02:12:28;;;;;;;10.27;8.00;;;10.80;99.90;;;;;;5034041;28;20332;-51
2024/03/15 02:14:56;;;;;;;9.17;8.17;;;10.80;99.90;;;;;;5060226;28;20206;-43
2024/03/15 02:17:22;;;;;;;8.30;7.03;;;10.70;99.90;;;;;;5063900;28;20271;-48
2024/03/15 02:19:48;;;;;;;8.90;7.47;;;10.70;99.90;;;;;;5056363;28;20843;-47
2024/03/15 02:22:16;;;;;;;10.67;7.40;;;10.70;99.90;;;;;;5056866;28;20248;-49
2024/03/15 02:24:43;;;;;;;8.77;7.87;;;10.60;99.90;;;;;;5060283;28;20219;-49
2024/03/15 02:27:13;;;;;;;8.50;7.60;;;10.60;99.90;;;;;;5033525;28;20264;-43
2024/03/15 02:29:41;;;;;;;11.47;7.90;;;10.50;99.90;;;;;;5061640;28;20211;-50
2024/03/15 02:32:07;;;;;;;9.13;7.97;;;10.50;99.90;;;;;;5062603;28;20205;-47
2024/03/15 02:34:35;;;;;;;9.30;7.27;;;10.50;99.90;;;;;;5061414;28;20237;-51
2024/03/15 02:37:02;;;;;;;9.87;7.93;;;10.40;99.90;;;;;;5053855;28;20311;-45
2024/03/15 02:39:29;;;;;;;11.50;7.83;;;10.40;99.90;;;;;;5057640;28;20279;-49
2024/03/15 02:41:56;;;;;;;9.93;7.47;;;10.40;99.90;;;;;;5031712;28;20314;-44
2024/03/15 02:44:23;;;;;;;9.43;7.70;;;10.30;99.90;;;;;;5063142;28;20276;-49
2024/03/15 02:46:50;;;;;;;8.80;8.00;;;10.30;99.90;;;;;;5073357;28;20278;-43
2024/03/15 02:49:17;;;;;;;8.53;7.63;;;10.30;99.90;;;;;;5063140;28;20244;-46
2024/03/15 02:51:44;;;;;;;10.20;8.57;;;10.20;99.90;;;;;;5059643;28;20251;-46
2024/03/15 02:54:11;;;;;;;10.17;8.10;;;10.20;99.90;;;;;;5055377;28;20214;-45
2024/03/15 02:56:38;;;;;;;9.13;8.23;;;10.20;99.90;;;;;;5061132;28;20199;-48
2024/03/15 02:59:06;;;;;;;9.53;7.50;;;10.20;99.90;;;;;;5031806;28;20198;-45
2024/03/15 03:01:33;;;;;;;12.40;9.03;;;10.10;99.90;;;;;;5059686;28;20203;-48
2024/03/15 03:04:00;;;;;;;11.40;8.50;;;10.10;99.90;;;;;;5060024;28;20211;-48
2024/03/15 03:06:27;;;;;;;9.77;7.97;;;10.10;99.90;;;;;;5053696;28;20207;-46
2024/03/15 03:08:56;;;;;;;9.60;7.33;;;10.10;99.90;;;;;;5053737;28;21004;-47
2024/03/15 03:11:22;;;;;;;9.23;7.70;;;10.00;99.90;;;;;;5079171;28;20215;-43
2024/03/15 03:13:49;;;;;;;10.27;8.07;;;10.00;99.90;;;;;;5023356;28;20227;-47
2024/03/15 03:16:20;;;;;;;11.23;8.43;;;9.90;99.90;;;;;;5060979;28;20214;-44
2024/03/15 03:18:47;;;;;;;10.03;7.73;;;9.90;99.90;;;;;;5058771;28;20195;-46
2024/03/15 03:21:14;;;;;;;9.63;8.10;;;9.90;99.90;;;;;;5062199;28;20205;-45
2024/03/15 03:23:41;;;;;;;10.27;8.77;;;9.90;99.90;;;;;;5060080;28;20219;-47
2024/03/15 03:26:10;;;;;;;8.67;7.77;;;9.90;99.90;;;;;;5056097;28;20569;-47
2024/03/15 03:28:37;;;;;;;12.13;8.63;;;9.90;99.90;;;;;;5045380;28;20198;-47
2024/03/15 03:31:04;;;;;;;10.53;8.60;;;9.90;99.90;;;;;;5033425;28;20207;-44
2024/03/15 03:33:31;;;;;;;11.87;8.60;;;9.90;99.90;;;;;;5061108;28;20219;-48
2024/03/15 03:35:58;;;;;;;9.83;8.70;;;9.90;99.90;;;;;;5059784;28;20214;-44
2024/03/15 03:38:25;;;;;;;11.13;8.43;;;9.90;99.90;;;;;;5062183;28;20194;-47
2024/03/15 03:40:51;;;;;;;14.57;8.27;;;9.90;99.90;;;;;;5052672;28;20190;-44
2024/03/15 03:43:18;;;;;;;10.50;8.53;;;9.90;99.90;;;;;;5050437;28;20258;-50
2024/03/15 03:45:47;;;;;;;9.83;8.83;;;10.00;99.90;;;;;;5022011;28;20203;-46
2024/03/15 03:48:15;;;;;;;11.37;8.97;;;9.90;99.90;;;;;;5049559;28;20199;-48
2024/03/15 03:50:43;;;;;;;10.57;9.17;;;10.00;99.90;;;;;;5057565;28;20206;-47
2024/03/15 03:53:10;;;;;;;11.77;9.87;;;9.90;99.90;;;;;;5060188;28;20211;-45
2024/03/15 03:55:40;;;;;;;11.13;9.37;;;9.90;99.90;;;;;;5055421;28;20211;-46
2024/03/15 03:58:07;;;;;;;13.23;9.33;;;9.90;99.90;;;;;;5044826;28;20198;-44
2024/03/15 04:00:37;;;;;;;13.60;9.63;;;9.90;99.90;;;;;;5044939;28;20237;-49
2024/03/15 04:03:04;;;;;;;13.60;9.13;;;9.90;99.90;;;;;;5061342;28;20218;-46
2024/03/15 04:05:31;;;;;;;12.70;8.90;;;10.00;99.90;;;;;;5055780;28;20209;-48
2024/03/15 04:07:59;;;;;;;10.00;8.87;;;10.00;99.90;;;;;;5056586;28;20174;-45
2024/03/15 04:10:26;;;;;;;10.73;8.93;;;10.00;99.90;;;;;;5060379;28;20563;-50
2024/03/15 04:12:55;;;;;;;11.17;8.97;;;10.00;99.90;;;;;;5053805;28;20225;-43
2024/03/15 04:15:21;;;;;;;11.00;9.37;;;10.00;99.90;;;;;;5023052;28;20226;-49
2024/03/15 04:17:48;;;;;;;14.83;9.00;;;10.00;99.90;;;;;;5058341;28;20254;-45
2024/03/15 04:20:17;;;;;;;10.13;8.87;;;10.00;99.90;;;;;;5060418;28;20194;-44
2024/03/15 04:22:45;;;;;;;12.43;8.63;;;10.00;99.90;;;;;;5057675;28;20982;-47
2024/03/15 04:25:16;;;;;;;11.60;9.30;;;10.00;99.90;;;;;;5061116;28;20538;-47
2024/03/15 04:27:44;;;;;;;14.53;9.40;;;10.00;99.90;;;;;;5051854;28;20229;-44
2024/03/15 04:30:14;;;;;;;11.47;9.03;;;10.00;99.90;;;;;;5061238;28;20202;-46
2024/03/15 04:32:41;;;;;;;9.87;8.90;;;10.00;99.90;;;;;;5028656;28;20313;-47
2024/03/15 04:35:08;;;;;;;10.10;9.07;;;10.00;99.90;;;;;;5060540;28;20311;-45
2024/03/15 04:37:35;;;;;;;12.07;9.70;;;10.10;99.90;;;;;;5058153;28;20618;-49
2024/03/15 04:40:04;;;;;;;10.17;9.10;;;10.00;99.90;;;;;;5060400;28;20693;-42
2024/03/15 04:42:32;;;;;;;11.03;9.17;;;10.10;99.90;;;;;;5053626;28;20250;-47
2024/03/15 04:45:03;;;;;;;9.77;8.73;;;10.10;99.90;;;;;;5059819;28;20253;-45
2024/03/15 04:47:30;;;;;;;11.50;8.90;;;10.10;99.90;;;;;;5029244;28;20202;-47
2024/03/15 04:49:56;;;;;;;12.40;10.00;;;10.10;99.90;;;;;;5059061;28;20187;-46
2024/03/15 04:52:23;;;;;;;13.23;9.73;;;10.10;99.90;;;;;;5045734;28;21750;-51
2024/03/15 04:54:50;;;;;;;11.43;8.77;;;10.10;99.90;;;;;;5040996;28;20186;-48
2024/03/15 04:57:18;;;;;;;10.90;9.37;;;10.10;99.90;;;;;;5054010;28;20631;-46
2024/03/15 04:59:46;;;;;;;14.40;9.57;;;10.10;99.90;;;;;;5051012;28;20715;-43
2024/03/15 05:02:13;;;;;;;10.13;9.13;;;10.10;99.90;;;;;;5030095;28;20705;-49
2024/03/15 05:04:40;;;;;;;10.80;9.70;;;10.10;99.90;;;;;;5056835;28;20195;-44
2024/03/15 05:07:07;;;;;;;10.73;9.63;;;10.10;99.90;;;;;;5057763;28;20279;-46
2024/03/15 05:09:36;;;;;;;10.27;9.27;;;10.10;99.90;;;;;;5056777;28;20210;-48
2024/03/15 05:12:03;;;;;;;12.93;9.47;;;10.00;99.90;;;;;;5060772;28;20252;-44
2024/03/15 05:14:32;;;;;;;11.87;9.77;;;10.00;99.90;;;;;;5043868;28;20214;-46
2024/03/15 05:16:59;;;;;;;14.47;10.40;;;10.00;99.90;;;;;;5053061;28;20689;-45
2024/03/15 05:19:26;;;;;;;12.30;10.20;;;9.90;99.90;;;;;;5030014;28;20293;-46
2024/03/15 05:21:53;;;;;;;12.27;9.50;;;9.90;99.90;;;;;;5052179;28;20205;-44
2024/03/15 05:24:20;;;;;;;13.93;10.67;;;9.90;99.90;;;;;;5052641;28;20275;-46
2024/03/15 05:26:48;;;;;;;12.47;10.70;;;9.90;99.90;;;;;;5059379;28;20999;-43
2024/03/15 05:29:15;;;;;;;11.33;10.07;;;9.90;99.90;;;;;;5046299;28;20206;-49
2024/03/15 05:31:42;;;;;;;12.80;11.07;;;9.90;99.90;;;;;;5055808;28;20269;-44
2024/03/15 05:34:09;;;;;;;11.10;9.90;;;9.90;99.90;;;;;;5030832;28;20218;-45
2024/03/15 05:36:36;;;;;;;14.23;10.33;;;9.90;99.90;;;;;;5045250;28;20284;-44
2024/03/15 05:39:03;;;;;;;11.57;10.33;;;9.90;99.90;;;;;;5060526;28;20268;-44
2024/03/15 05:41:30;;;;;;;12.33;10.67;;;9.90;99.90;;;;;;5069749;28;20191;-44
2024/03/15 05:43:57;;;;;;;13.53;10.80;;;9.90;99.90;;;;;;5053548;28;20222;-44
2024/03/15 05:46:24;;;;;;;12.10;10.13;;;10.00;99.90;;;;;;5046682;28;20310;-47
2024/03/15 05:48:53;;;;;;;13.00;10.83;;;10.00;99.90;;;;;;5026200;28;20281;-46
2024/03/15 05:51:21;;;;;;;13.50;10.10;;;10.00;99.90;;;;;;5057880;28;20221;-49
2024/03/15 05:53:48;;;;;;;13.30;11.03;;;10.00;99.90;;;;;;5051668;28;20225;-46
2024/03/15 05:56:16;;;;;;;13.57;10.27;;;10.10;99.90;;;;;;5041647;28;20264;-48
2024/03/15 05:58:43;;;;;;;12.30;10.97;;;10.10;99.90;;;;;;5049487;28;20187;-50
2024/03/15 06:01:10;;;;;;;15.90;10.83;;;10.10;99.90;;;;;;5038613;28;20230;-49
2024/03/15 06:03:37;;;;;;;12.27;10.90;;;10.10;99.90;;;;;;5024226;28;21675;-47
2024/03/15 06:06:08;;;;;;;13.03;10.70;;;10.20;99.90;;;;;;5049836;28;20256;-47
2024/03/15 06:08:35;;;;;;;12.80;10.90;;;10.20;99.90;;;;;;5030622;28;20199;-45
2024/03/15 06:11:02;;;;;;;13.77;10.47;;;10.20;99.90;;;;;;5047970;28;20206;-44
2024/03/15 06:13:29;;;;;;;12.90;10.40;;;10.30;99.90;;;;;;5051708;28;20215;-49
2024/03/15 06:15:56;;;;;;;12.70;9.80;;;10.30;99.90;;;;;;5046499;28;20246;-47
2024/03/15 06:18:23;;;;;;;16.43;11.40;;;10.30;99.90;;;;;;5024582;28;20195;-49
2024/03/15 06:20:51;;;;;;;11.90;10.40;;;10.30;99.90;;;;;;5062767;28;20689;-50
2024/03/15 06:23:19;;;;;;;13.47;10.57;;;10.40;99.90;;;;;;5047465;28;20237;-44
2024/03/15 06:25:47;;;;;;;13.47;10.27;;;10.40;99.90;;;;;;5060904;28;20195;-48
2024/03/15 06:28:14;;;;;;;13.80;10.80;;;10.40;99.90;;;;;;5064004;28;20393;-47
2024/03/15 06:30:45;;;;;;;15.63;12.17;;;10.40;99.90;;;;;;5051936;28;20661;-44
2024/03/15 06:33:12;;;;;;;13.47;10.43;;;10.40;99.90;;;;;;5051162;28;20213;-47
2024/03/15 06:35:43;;;;;;;14.17;10.70;;;10.40;99.90;;;;;;5032402;28;20207;-45
2024/03/15 06:38:27;;;;;;;13.93;10.53;;;10.40;99.90;;;;;;5044282;28;20194;-48
2024/03/15 06:41:07;;;;;;;12.60;10.80;;;10.50;99.90;;;;;;5056964;28;20904;-45
2024/03/15 06:43:41;;;;;;;11.27;10.17;;;10.50;99.90;;;;;;5052263;28;20222;-51
2024/03/15 06:46:19;;;;;;;15.40;10.40;;;10.50;99.90;;;;;;5053416;28;20271;-48
2024/03/15 06:48:55;;;;;;;13.83;9.93;;;10.50;99.90;;;;;;5056039;28;20277;-47
2024/03/15 06:54:08;;;;;;;14.97;11.07;;;10.50;99.90;;;;;;5048317;28;20219;-52
2024/03/15 06:56:37;;;;;;;13.27;11.10;;;10.60;99.90;;;;;;5069516;28;20297;-46
2024/03/15 06:59:04;;;;;;;12.93;10.77;;;10.50;99.90;;;;;;5058405;28;20282;-49
2024/03/15 07:01:31;;;;;;;14.83;11.03;;;10.50;99.90;;;;;;5064123;28;20911;-48
2024/03/15 07:03:59;;;;;;;13.63;10.53;;;10.60;99.90;;;;;;5039019;28;20223;-46
2024/03/15 07:06:27;;;;;;;14.30;10.63;;;10.60;99.90;;;;;;5016092;28;20207;-50
2024/03/15 07:08:57;;;;;;;15.63;10.90;;;10.60;99.90;;;;;;5050853;28;20234;-49
2024/03/15 07:11:29;;;;;;;12.47;10.23;;;10.70;99.90;;;;;;5051657;28;20673;-50
2024/03/15 07:13:57;;;;;;;15.80;10.67;;;10.70;99.90;;;;;;5068327;28;20704;-48
2024/03/15 07:16:26;;;;;;;12.93;11.53;;;10.70;99.90;;;;;;5053203;28;20222;-49
2024/03/15 07:18:55;;;;;;;12.93;10.67;;;10.80;99.90;;;;;;5068896;28;20194;-46
2024/03/15 07:21:23;;;;;;;44.40;28.10;;;10.80;99.90;;;;;;5021895;28;20199;-47
2024/03/15 07:23:50;;;;;;;11.73;10.23;;;10.80;99.90;;;;;;5055312;28;20221;-46
2024/03/15 07:26:22;;;;;;;13.03;10.73;;;10.90;99.90;;;;;;5035915;28;20206;-46
2024/03/15 07:28:49;;;;;;;14.37;10.73;;;11.00;99.90;;;;;;5049340;28;20201;-49
2024/03/15 07:31:20;;;;;;;13.27;10.37;;;11.00;99.90;;;;;;5054383;28;20206;-45
2024/03/15 07:33:47;;;;;;;14.03;11.17;;;11.10;99.90;;;;;;5027402;28;20743;-49
2024/03/15 07:36:18;;;;;;;14.77;11.77;;;11.10;99.90;;;;;;5030901;28;20572;-43
2024/03/15 07:38:47;;;;;;;15.73;10.90;;;11.20;99.90;;;;;;5036213;28;20705;-48
2024/03/15 07:41:17;;;;;;;13.90;11.37;;;11.30;99.90;;;;;;5050238;28;20214;-45
2024/03/15 07:43:51;;;;;;;14.87;10.83;;;11.40;99.90;;;;;;5043567;28;20244;-49
2024/03/15 07:46:18;;;;;;;12.30;10.53;;;11.50;99.90;;;;;;5051047;28;20203;-44
2024/03/15 07:48:46;;;;;;;15.23;10.83;;;11.50;99.90;;;;;;5032200;28;20650;-49
2024/03/15 07:51:20;;;;;;;16.70;10.17;;;11.70;99.90;;;;;;5042941;28;20217;-46
2024/03/15 07:53:48;;;;;;;10.50;9.20;;;11.80;99.90;;;;;;5070314;28;20214;-51
2024/03/15 07:56:16;;;;;;;12.70;10.33;;;11.90;99.90;;;;;;5017886;28;20219;-46
2024/03/15 07:58:47;;;;;;;11.07;9.40;;;11.90;99.90;;;;;;5042873;28;20202;-49
2024/03/15 08:01:15;;;;;;;12.87;10.27;;;12.00;99.90;;;;;;5036568;28;20222;-45
2024/03/15 08:03:45;;;;;;;12.90;10.23;;;12.10;99.90;;;;;;5038913;28;20228;-48
2024/03/15 08:06:12;;;;;;;12.03;9.67;;;12.20;99.90;;;;;;5051552;28;20201;-47
2024/03/15 08:08:40;;;;;;;14.57;9.43;;;12.30;99.90;;;;;;5026850;28;20249;-49
2024/03/15 08:11:08;;;;;;;10.83;8.90;;;12.40;99.90;;;;;;5054084;28;20202;-50
2024/03/15 08:13:37;;;;;;;12.00;9.23;;;12.50;99.90;;;;;;5038529;28;20929;-53
2024/03/15 08:16:18;;;;;;;12.77;9.70;;;12.70;99.90;;;;;;5064289;28;20202;-48
2024/03/15 08:18:48;;;;;;;12.33;9.70;;;12.70;99.90;;;;;;5056191;28;20803;-45
2024/03/15 08:21:16;;;;;;;12.30;8.63;;;12.80;99.90;;;;;;5051503;28;20228;-46
2024/03/15 08:23:44;;;;;;;10.33;8.37;;;12.90;99.90;;;;;;5028592;28;20227;-46
2024/03/15 08:26:12;;;;;;;11.20;8.57;;;13.00;99.90;;;;;;5065430;28;20209;-46
2024/03/15 08:28:41;;;;;;;9.50;8.50;;;13.10;99.90;;;;;;5068057;28;20908;-44
2024/03/15 08:31:13;;;;;;;9.60;8.60;;;13.30;99.90;;;;;;5025464;28;20654;-46
2024/03/15 08:33:47;;;;;;;10.27;8.20;;;13.40;99.90;;;;;;5050491;28;20912;-44
2024/03/15 08:36:15;;;;;;;10.13;8.30;;;13.60;99.90;;;;;;5047777;28;20210;-44
2024/03/15 08:38:43;;;;;;;8.93;8.03;;;13.70;99.90;;;;;;5026865;28;20256;-45
2024/03/15 08:41:12;;;;;;;9.73;8.73;;;13.70;99.90;;;;;;5061425;28;20286;-45
2024/03/15 08:43:40;;;;;;;8.17;7.37;;;13.90;99.90;;;;;;5043644;28;20239;-51
2024/03/15 08:46:07;;;;;;;8.63;7.00;;;14.00;99.90;;;;;;5058962;28;20729;-47
2024/03/15 08:48:39;;;;;;;11.67;8.30;;;14.10;99.90;;;;;;5053007;28;20712;-52
2024/03/15 08:51:08;;;;;;;8.97;7.67;;;14.20;99.90;;;;;;5034324;28;20202;-45
2024/03/15 08:53:35;;;;;;;8.87;8.00;;;14.30;99.90;;;;;;5027141;28;20226;-48
2024/03/15 08:56:07;;;;;;;8.70;7.67;;;14.30;99.90;;;;;;5059771;28;20193;-50
2024/03/15 08:58:35;;;;;;;11.17;7.53;;;14.20;99.90;;;;;;5052060;28;20306;-51
2024/03/15 09:01:04;;;;;;;11.57;7.30;;;14.20;99.90;;;;;;5044141;28;20598;-44
2024/03/15 09:03:33;;;;;;;9.40;7.57;;;14.20;99.90;;;;;;5055791;28;20214;-52
2024/03/15 09:06:06;;;;;;;8.37;7.57;;;14.20;99.90;;;;;;5026902;28;20325;-50
2024/03/15 09:08:35;;;;;;;10.80;7.83;;;14.10;99.90;;;;;;5018067;28;20197;-50
2024/03/15 09:11:02;;;;;;;10.33;7.70;;;14.10;99.90;;;;;;5051983;28;20199;-47
2024/03/15 09:13:29;;;;;;;9.90;8.10;;;14.00;99.90;;;;;;5050824;28;20233;-50
2024/03/15 09:15:58;;;;;;;11.30;8.50;;;13.90;99.90;;;;;;5018700;28;20206;-48
2024/03/15 09:18:25;;;;;;;10.43;8.60;;;13.90;99.90;;;;;;5051104;28;20233;-52
2024/03/15 09:20:54;;;;;;;10.37;8.23;;;13.80;99.90;;;;;;5040513;28;20998;-48
2024/03/15 09:23:21;;;;;;;8.90;8.00;;;13.70;99.90;;;;;;5075129;28;20223;-48
2024/03/15 09:25:49;;;;;;;10.13;8.20;;;13.60;99.90;;;;;;5026475;28;20264;-46
2024/03/15 09:28:18;;;;;;;11.03;8.70;;;13.50;99.90;;;;;;5060119;28;20194;-48
2024/03/15 09:30:49;;;;;;;11.50;8.63;;;13.50;99.90;;;;;;5040416;28;21595;-53
2024/03/15 09:33:15;;;;;;;10.73;8.83;;;13.40;99.90;;;;;;5029165;28;20313;-45
2024/03/15 09:35:46;;;;;;;8.77;7.93;;;13.30;99.90;;;;;;5057177;28;20217;-43
2024/03/15 09:38:14;;;;;;;10.93;8.17;;;13.20;99.90;;;;;;5050209;28;20235;-49
2024/03/15 09:40:42;;;;;;;10.20;8.70;;;13.10;99.90;;;;;;5025302;28;20218;-45
2024/03/15 09:43:11;;;;;;;9.77;8.77;;;13.10;99.90;;;;;;5066725;28;20250;-45
2024/03/15 09:45:38;;;;;;;8.97;8.03;;;13.00;99.90;;;;;;5037280;28;20211;-45
2024/03/15 09:48:05;;;;;;;8.83;7.93;;;13.00;99.90;;;;;;5027520;28;20198;-49
2024/03/15 09:50:32;;;;;;;8.63;7.33;;;13.00;99.90;;;;;;5063431;28;20199;-45
2024/03/15 09:53:00;;;;;;;10.53;7.73;;;13.00;99.90;;;;;;5044730;28;20226;-49
2024/03/15 09:55:27;;;;;;;9.73;8.63;;;13.00;99.90;;;;;;5061415;28;20195;-46
2024/03/15 09:57:54;;;;;;;10.10;8.57;;;13.00;99.90;;;;;;5032526;28;20272;-50
2024/03/15 10:00:21;;;;;;;10.20;8.77;;;13.00;99.90;;;;;;5054188;28;20195;-49
2024/03/15 10:02:48;;;;;;;8.40;7.70;;;12.90;99.90;;;;;;5065170;28;20223;-48
2024/03/15 10:05:15;;;;;;;10.37;8.20;;;12.90;99.90;;;;;;5055812;28;20205;-50
2024/03/15 10:07:42;;;;;;;9.57;7.40;;;12.90;99.90;;;;;;5020602;28;20285;-48
2024/03/15 10:10:11;;;;;;;12.83;8.60;;;12.90;99.90;;;;;;5057865;28;20244;-53
2024/03/15 10:12:39;;;;;;;9.63;8.63;;;12.90;99.90;;;;;;5033051;28;20218;-50
2024/03/15 10:15:10;;;;;;;10.80;9.67;;;12.90;99.90;;;;;;5062831;28;20194;-53
2024/03/15 10:17:39;;;;;;;10.80;8.30;;;13.00;99.90;;;;;;5040790;28;20363;-48
2024/03/15 10:20:10;;;;;;;10.03;8.70;;;12.90;99.90;;;;;;5048445;28;20593;-51
2024/03/15 10:22:38;;;;;;;9.80;8.47;;;13.00;99.90;;;;;;5039542;28;20219;-48
2024/03/15 10:25:07;;;;;;;12.30;8.80;;;13.00;99.90;;;;;;5053134;28;20198;-51
2024/03/15 10:27:36;;;;;;;12.37;8.90;;;13.10;99.90;;;;;;5038404;28;20204;-47
2024/03/15 10:30:05;;;;;;;9.23;8.30;;;13.10;99.90;;;;;;5063361;28;20195;-51
2024/03/15 10:32:32;;;;;;;9.70;7.53;;;13.10;99.90;;;;;;5037610;28;20297;-46
2024/03/15 10:34:58;;;;;;;10.43;8.30;;;13.10;99.90;;;;;;5051845;28;20203;-46
2024/03/15 10:37:26;;;;;;;9.60;7.47;;;13.10;99.90;;;;;;5052862;28;20336;-47
2024/03/15 10:39:53;;;;;;;11.07;8.90;;;13.20;99.90;;;;;;5053846;28;20277;-48
2024/03/15 10:42:20;;;;;;;11.83;8.27;;;13.20;99.90;;;;;;5030416;28;20636;-52
2024/03/15 10:44:47;;;;;;;11.90;8.83;;;13.20;99.90;;;;;;5063675;28;20214;-46
2024/03/15 10:47:14;;;;;;;11.37;8.07;;;13.20;99.90;;;;;;5054293;28;20202;-53
2024/03/15 10:49:41;;;;;;;10.57;8.83;;;13.20;99.90;;;;;;5039940;28;20660;-48
2024/03/15 10:52:09;;;;;;;11.10;9.20;;;13.10;99.90;;;;;;5058032;28;20198;-50
2024/03/15 10:54:36;;;;;;;10.87;7.80;;;13.10;99.90;;;;;;5035298;28;20226;-48
2024/03/15 10:57:02;;;;;;;12.63;8.83;;;13.10;99.90;;;;;;5057692;28;20268;-48
2024/03/15 10:59:29;;;;;;;11.93;9.07;;;13.10;99.90;;;;;;5013805;28;20206;-50
2024/03/15 11:01:58;;;;;;;11.50;9.93;;;13.10;99.90;;;;;;5066452;28;20253;-47
2024/03/15 11:04:25;;;;;;;9.43;8.43;;;13.20;99.90;;;;;;5036464;28;20214;-47
2024/03/15 11:06:52;;;;;;;13.27;8.73;;;13.30;99.90;;;;;;5046605;28;20211;-51
2024/03/15 11:09:23;;;;;;;11.33;8.97;;;13.40;99.90;;;;;;5042975;28;20203;-48
2024/03/15 11:12:00;;;;;;;11.17;8.73;;;13.50;99.90;;;;;;5062958;28;20218;-49
2024/03/15 11:14:27;;;;;;;9.73;8.70;;;13.60;99.90;;;;;;5031310;28;20272;-44
2024/03/15 11:16:57;;;;;;;10.07;8.77;;;13.80;99.90;;;;;;5047250;28;20195;-47
2024/03/15 11:19:24;;;;;;;10.03;8.67;;;13.80;99.90;;;;;;5041600;28;20209;-43
2024/03/15 11:22:01;;;;;;;9.13;8.20;;;13.90;99.90;;;;;;5049687;28;20206;-49
2024/03/15 11:24:28;;;;;;;12.10;9.70;;;14.10;99.90;;;;;;5053906;28;20236;-49
2024/03/15 11:27:04;;;;;;;11.40;8.87;;;14.10;99.90;;;;;;5039424;28;20213;-46
2024/03/15 11:29:33;;;;;;;10.63;9.07;;;14.10;99.90;;;;;;5028985;28;20661;-44
2024/03/15 11:32:00;;;;;;;10.40;8.20;;;14.10;99.90;;;;;;5069014;28;20207;-48
2024/03/15 11:34:27;;;;;;;10.27;8.30;;;14.00;99.90;;;;;;5054937;28;20238;-48
2024/03/15 11:36:54;;;;;;;9.97;7.77;;;14.00;99.90;;;;;;5041261;28;20222;-46
2024/03/15 11:39:21;;;;;;;10.60;7.80;;;13.90;99.90;;;;;;5055143;28;20318;-47
2024/03/15 11:41:48;;;;;;;8.77;7.87;;;13.90;99.90;;;;;;5054459;28;20235;-52
2024/03/15 11:44:15;;;;;;;9.23;8.23;;;14.00;99.90;;;;;;5061735;28;20211;-44
2024/03/15 11:46:42;;;;;;;10.97;8.77;;;13.90;99.90;;;;;;5030109;28;20206;-45
2024/03/15 11:49:10;;;;;;;11.07;8.63;;;13.90;99.90;;;;;;5053751;28;20209;-50
2024/03/15 11:51:39;;;;;;;11.67;8.80;;;13.90;99.90;;;;;;5040259;28;20210;-50
2024/03/15 11:54:16;;;;;;;10.47;8.67;;;13.90;99.90;;;;;;5053116;28;21541;-47
2024/03/15 11:56:44;;;;;;;12.57;9.47;;;14.00;99.90;;;;;;5060347;28;20247;-49
2024/03/15 11:59:12;;;;;;;11.77;8.77;;;14.00;99.90;;;;;;5060968;28;20655;-46
2024/03/15 12:01:40;;;;;;;9.73;8.70;;;13.90;99.90;;;;;;5027893;28;20268;-48
2024/03/15 12:04:08;;;;;;;10.70;9.30;;;13.90;99.90;;;;;;5051031;28;20372;-47
2024/03/15 12:06:39;;;;;;;8.63;7.80;;;13.90;99.90;;;;;;5043835;28;20243;-50
2024/03/15 12:09:11;;;;;;;9.20;8.07;;;13.90;99.90;;;;;;5049592;28;20908;-46
2024/03/15 12:11:38;;;;;;;10.83;9.73;;;13.90;99.90;;;;;;5056539;28;20203;-49
2024/03/15 12:14:05;;;;;;;12.43;8.47;;;14.00;99.90;;;;;;5052911;28;20306;-48
2024/03/15 12:16:32;;;;;;;9.40;8.20;;;14.10;99.90;;;;;;5013435;28;20252;-50
2024/03/15 12:18:59;;;;;;;8.97;8.13;;;14.20;99.90;;;;;;5050591;28;23068;-48
2024/03/15 12:21:26;;;;;;;9.63;8.33;;;14.40;99.90;;;;;;5058861;28;20256;-46
2024/03/15 12:23:53;;;;;;;10.10;8.80;;;14.50;99.90;;;;;;5039793;28;20214;-48
2024/03/15 12:26:20;;;;;;;8.33;7.23;;;14.60;99.90;;;;;;5057800;28;20198;-50
2024/03/15 12:28:52;;;;;;;9.37;8.03;;;14.70;99.90;;;;;;5047282;28;20206;-53
2024/03/15 12:31:18;;;;;;;9.83;7.20;;;14.60;99.90;;;;;;5061369;28;20218;-47
2024/03/15 12:33:46;;;;;;;7.90;7.10;;;14.60;99.90;;;;;;5024583;28;20218;-53
2024/03/15 12:36:13;;;;;;;8.43;7.43;;;14.60;99.90;;;;;;5057668;28;20203;-48
2024/03/15 12:38:40;;;;;;;8.77;6.97;;;14.60;99.90;;;;;;5047456;28;20231;-52
2024/03/15 12:41:07;;;;;;;7.57;6.70;;;14.60;99.90;;;;;;5058212;28;20205;-53
2024/03/15 12:43:34;;;;;;;7.77;6.97;;;14.60;99.90;;;;;;5052091;28;20221;-52
2024/03/15 12:46:01;;;;;;;10.80;6.97;;;14.60;99.90;;;;;;5047956;28;20561;-49